Time;durP1;ratioP1;P1;durP2;ratioP2;P2;SDS_P1;SDS_P2;PMS_P1;PMS_P2;Temp;Humidity;BMP_temperature;BMP_pressure;BME280_temperature;BME280_humidity;BME280_pressure;Samples;Min_cycle;Max_cycle;Signal;HPM_P1;HPM_P2
2022/08/28 00:00:18;;;;;;;29.88;23.05;;;;;;;;;;5155358;27;20027;-60
2022/08/28 00:02:45;;;;;;;25.20;21.90;;;;;;;;;;5155296;27;20067;-60
2022/08/28 00:05:11;;;;;;;28.17;21.90;;;;;;;;;;5155332;27;20037;-60
2022/08/28 00:07:37;;;;;;;27.00;22.35;;;;;;;;;;5155607;27;20022;-60
2022/08/28 00:10:05;;;;;;;26.25;23.42;;;;;;;;;;5155568;27;20323;-60
2022/08/28 00:12:31;;;;;;;26.73;23.80;;;;;;;;;;5156067;27;20015;-60
2022/08/28 00:14:57;;;;;;;24.20;21.73;;;;;;;;;;5155889;27;20122;-60
2022/08/28 00:17:23;;;;;;;26.73;22.10;;;;;;;;;;5155920;27;20023;-60
2022/08/28 00:19:49;;;;;;;25.65;22.70;;;;;;;;;;5155163;27;20468;-60
2022/08/28 00:22:15;;;;;;;25.95;21.67;;;;;;;;;;5155203;27;20030;-60
2022/08/28 00:24:43;;;;;;;23.58;21.08;;;;;;;;;;5155940;27;20019;-60
2022/08/28 00:29:54;;;;;;;28.17;23.83;;;;;;;;;;5155467;27;20075;-60
2022/08/28 00:32:22;;;;;;;24.02;21.58;;;;;;;;;;5155347;27;20050;-60
2022/08/28 00:34:48;;;;;;;31.50;23.10;;;;;;;;;;5155676;27;20026;-60
2022/08/28 00:37:14;;;;;;;24.88;21.80;;;;;;;;;;5154983;27;20075;-60
2022/08/28 00:39:40;;;;;;;28.00;22.15;;;;;;;;;;5154995;27;20109;-60
2022/08/28 00:42:06;;;;;;;25.05;22.45;;;;;;;;;;5155260;27;20027;-60
2022/08/28 00:44:32;;;;;;;24.48;21.27;;;;;;;;;;5155021;27;20098;-60
2022/08/28 00:46:58;;;;;;;24.73;22.23;;;;;;;;;;5155457;27;20062;-60
2022/08/28 00:49:34;;;;;;;28.00;23.38;;;;;;;;;;5154891;27;20023;-60
2022/08/28 00:52:10;;;;;;;25.33;20.73;;;;;;;;;;5156093;27;20061;-60
2022/08/28 00:54:56;;;;;;;24.70;21.83;;;;;;;;;;5154910;27;20506;-60
2022/08/28 00:57:26;;;;;;;24.67;22.13;;;;;;;;;;5158105;27;20471;-60
2022/08/28 00:59:52;;;;;;;25.67;21.67;;;;;;;;;;5158883;27;20093;-60
2022/08/28 01:02:18;;;;;;;29.40;24.15;;;;;;;;;;5158581;27;20064;-60
2022/08/28 01:04:44;;;;;;;25.42;22.73;;;;;;;;;;5158922;27;20027;-60
2022/08/28 01:07:13;;;;;;;25.98;22.50;;;;;;;;;;5159067;27;20023;-60
2022/08/28 01:09:42;;;;;;;27.58;24.40;;;;;;;;;;5158374;27;20019;-60
2022/08/28 01:12:22;;;;;;;27.02;24.13;;;;;;;;;;5159164;27;20018;-60
2022/08/28 01:14:49;;;;;;;25.93;23.20;;;;;;;;;;5158761;27;20026;-59
2022/08/28 01:17:16;;;;;;;30.10;23.08;;;;;;;;;;5158829;27;20288;-60
2022/08/28 01:19:44;;;;;;;23.75;21.33;;;;;;;;;;5158275;27;20345;-60
2022/08/28 01:22:28;;;;;;;23.17;19.45;;;;;;;;;;5158811;27;20453;-60
2022/08/28 01:24:57;;;;;;;25.52;22.77;;;;;;;;;;5158785;27;20022;-60
2022/08/28 01:27:23;;;;;;;26.73;23.58;;;;;;;;;;5158391;27;20037;-60
2022/08/28 01:29:49;;;;;;;23.95;20.00;;;;;;;;;;5158091;27;20022;-60
2022/08/28 01:32:28;;;;;;;29.13;22.02;;;;;;;;;;5158035;27;20027;-60
2022/08/28 01:34:54;;;;;;;24.60;21.92;;;;;;;;;;5158227;27;20029;-60
2022/08/28 01:37:20;;;;;;;26.50;22.52;;;;;;;;;;5157544;27;20026;-60
2022/08/28 01:39:46;;;;;;;23.20;20.65;;;;;;;;;;5158144;27;20034;-60
2022/08/28 01:42:12;;;;;;;24.67;21.08;;;;;;;;;;5157822;27;20023;-60
2022/08/28 01:44:38;;;;;;;26.50;21.15;;;;;;;;;;5157661;27;20022;-60
2022/08/28 01:47:04;;;;;;;23.67;21.20;;;;;;;;;;5158291;27;20035;-60
2022/08/28 01:49:30;;;;;;;24.67;21.88;;;;;;;;;;5157694;27;20023;-60
2022/08/28 01:51:57;;;;;;;23.65;21.15;;;;;;;;;;5158098;27;20042;-60
2022/08/28 01:54:24;;;;;;;23.83;21.38;;;;;;;;;;5158058;27;20033;-60
2022/08/28 01:56:50;;;;;;;25.83;22.38;;;;;;;;;;5157935;27;20030;-60
2022/08/28 01:59:16;;;;;;;25.55;21.00;;;;;;;;;;5157483;27;20038;-60
2022/08/28 02:01:42;;;;;;;26.00;23.05;;;;;;;;;;5157434;27;20027;-60
2022/08/28 02:04:09;;;;;;;28.75;23.45;;;;;;;;;;5157948;27;20031;-60
2022/08/28 02:06:36;;;;;;;26.90;22.33;;;;;;;;;;5156848;27;20464;-60
2022/08/28 02:09:02;;;;;;;23.63;20.98;;;;;;;;;;5158024;27;20030;-60
2022/08/28 02:11:30;;;;;;;25.55;22.02;;;;;;;;;;5157409;27;20023;-60
2022/08/28 02:13:57;;;;;;;24.85;20.90;;;;;;;;;;5158025;27;20037;-60
2022/08/28 02:16:23;;;;;;;28.00;23.55;;;;;;;;;;5157053;27;20027;-60
2022/08/28 02:18:49;;;;;;;29.55;23.63;;;;;;;;;;5157580;27;20022;-60
2022/08/28 02:21:15;;;;;;;25.25;21.55;;;;;;;;;;5157350;27;20019;-60
2022/08/28 02:23:42;;;;;;;25.05;22.35;;;;;;;;;;5157315;27;20029;-60
2022/08/28 02:26:09;;;;;;;26.23;21.92;;;;;;;;;;5157452;27;20022;-60
2022/08/28 02:28:36;;;;;;;26.77;22.45;;;;;;;;;;5157187;27;20033;-60
2022/08/28 02:31:02;;;;;;;25.83;21.88;;;;;;;;;;5157084;27;20078;-60
2022/08/28 02:33:28;;;;;;;26.25;23.50;;;;;;;;;;5156836;27;20030;-60
2022/08/28 02:35:54;;;;;;;26.52;23.67;;;;;;;;;;5157155;27;20019;-60
2022/08/28 02:38:21;;;;;;;29.17;24.65;;;;;;;;;;5157528;27;20350;-60
2022/08/28 02:40:47;;;;;;;26.65;23.48;;;;;;;;;;5156867;27;20022;-60
2022/08/28 02:43:13;;;;;;;28.60;24.73;;;;;;;;;;5156627;27;20379;-60
2022/08/28 02:45:39;;;;;;;27.85;24.15;;;;;;;;;;5156621;27;20059;-60
2022/08/28 02:48:05;;;;;;;27.73;22.27;;;;;;;;;;5156547;27;20034;-60
2022/08/28 02:50:31;;;;;;;24.30;21.77;;;;;;;;;;5156333;27;20487;-60
2022/08/28 02:52:57;;;;;;;25.33;22.67;;;;;;;;;;5156357;27;20478;-60
2022/08/28 02:55:24;;;;;;;28.35;24.50;;;;;;;;;;5156320;27;20027;-60
2022/08/28 02:57:51;;;;;;;28.70;22.55;;;;;;;;;;5156194;27;20014;-60
2022/08/28 03:00:19;;;;;;;27.30;22.73;;;;;;;;;;5156261;27;20023;-60
2022/08/28 03:02:45;;;;;;;26.48;23.58;;;;;;;;;;5156219;27;20513;-60
2022/08/28 03:05:13;;;;;;;26.63;22.60;;;;;;;;;;5156498;27;20018;-60
2022/08/28 03:07:38;;;;;;;28.65;22.85;;;;;;;;;;5156089;27;20027;-60
2022/08/28 03:10:06;;;;;;;22.55;19.63;;;;;;;;;;5156076;27;20070;-60
2022/08/28 03:12:32;;;;;;;25.98;22.77;;;;;;;;;;5156888;27;20075;-60
2022/08/28 03:14:58;;;;;;;24.70;21.80;;;;;;;;;;5156356;27;20031;-60
2022/08/28 03:17:24;;;;;;;27.75;23.38;;;;;;;;;;5154733;27;20038;-60
2022/08/28 03:19:51;;;;;;;23.48;20.98;;;;;;;;;;5155426;27;20030;-60
2022/08/28 03:23:24;;;;;;;26.85;22.10;;;;;;;;;;5155936;27;20034;-60
2022/08/28 03:25:04;;;;;;;26.45;22.60;;;;;;;;;;5155421;27;20023;-60
2022/08/28 03:27:30;;;;;;;25.60;22.88;;;;;;;;;;5155897;27;20421;-60
2022/08/28 03:29:56;;;;;;;26.85;21.35;;;;;;;;;;5156111;27;20018;-60
2022/08/28 03:32:22;;;;;;;27.50;22.15;;;;;;;;;;5155816;27;20026;-60
2022/08/28 03:34:48;;;;;;;25.98;20.17;;;;;;;;;;5155841;27;20027;-60
2022/08/28 03:37:14;;;;;;;25.80;21.90;;;;;;;;;;5155687;27;20050;-60
2022/08/28 03:39:40;;;;;;;23.75;21.10;;;;;;;;;;5156006;27;20027;-60
2022/08/28 03:42:06;;;;;;;26.40;21.88;;;;;;;;;;5156008;27;20098;-60
2022/08/28 03:44:32;;;;;;;29.05;21.77;;;;;;;;;;5155628;27;20026;-60
2022/08/28 03:46:58;;;;;;;28.55;23.00;;;;;;;;;;5155628;27;20034;-60
2022/08/28 03:49:24;;;;;;;26.35;23.25;;;;;;;;;;5155932;27;20066;-60
2022/08/28 03:51:50;;;;;;;26.88;24.13;;;;;;;;;;5155119;27;20392;-60
2022/08/28 03:54:16;;;;;;;26.42;23.60;;;;;;;;;;5155587;27;20046;-60
2022/08/28 03:56:42;;;;;;;26.95;20.60;;;;;;;;;;5155439;27;20033;-60
2022/08/28 03:59:08;;;;;;;25.85;21.15;;;;;;;;;;5155269;27;20352;-60
2022/08/28 04:01:36;;;;;;;27.92;22.52;;;;;;;;;;5155509;27;20015;-60
2022/08/28 04:04:03;;;;;;;26.52;21.40;;;;;;;;;;5155461;27;20019;-60
2022/08/28 04:06:29;;;;;;;29.33;22.48;;;;;;;;;;5155654;27;20031;-60
2022/08/28 04:08:55;;;;;;;24.20;21.25;;;;;;;;;;5155437;27;20098;-60
2022/08/28 04:11:22;;;;;;;24.85;22.30;;;;;;;;;;5155427;27;20026;-60
2022/08/28 04:13:48;;;;;;;28.30;23.15;;;;;;;;;;5156221;27;20014;-60
2022/08/28 04:16:18;;;;;;;31.40;22.38;;;;;;;;;;5155248;27;20018;-60
2022/08/28 04:18:45;;;;;;;27.48;22.17;;;;;;;;;;5155236;27;20091;-60
2022/08/28 04:21:15;;;;;;;23.73;21.38;;;;;;;;;;5155611;27;20023;-60
2022/08/28 04:23:42;;;;;;;23.48;21.10;;;;;;;;;;5155852;27;20027;-60
2022/08/28 04:26:09;;;;;;;29.10;21.65;;;;;;;;;;5155261;27;20033;-60
2022/08/28 04:28:35;;;;;;;25.10;22.02;;;;;;;;;;5155562;27;20019;-60
2022/08/28 04:31:01;;;;;;;25.13;19.98;;;;;;;;;;5156533;27;20019;-60
2022/08/28 04:33:28;;;;;;;26.05;21.80;;;;;;;;;;5158576;27;20050;-60
2022/08/28 04:35:55;;;;;;;27.33;20.85;;;;;;;;;;5159146;27;20018;-60
2022/08/28 04:38:21;;;;;;;24.60;22.00;;;;;;;;;;5159495;27;20031;-60
2022/08/28 04:40:47;;;;;;;24.95;20.45;;;;;;;;;;5159184;27;20045;-60
2022/08/28 04:43:13;;;;;;;23.90;19.83;;;;;;;;;;5159349;27;20023;-60
2022/08/28 04:45:40;;;;;;;25.05;21.10;;;;;;;;;;5159003;27;20420;-60
2022/08/28 04:48:06;;;;;;;26.08;20.88;;;;;;;;;;5158706;27;20487;-60
2022/08/28 04:50:33;;;;;;;27.30;22.38;;;;;;;;;;5159090;27;20122;-60
2022/08/28 04:52:59;;;;;;;23.08;19.80;;;;;;;;;;5159412;27;20030;-60
2022/08/28 04:55:24;;;;;;;25.38;20.35;;;;;;;;;;5158867;27;20019;-61
2022/08/28 04:57:51;;;;;;;29.15;23.08;;;;;;;;;;5158734;27;20075;-60
2022/08/28 05:00:17;;;;;;;24.38;21.55;;;;;;;;;;5158701;27;20058;-60
2022/08/28 05:02:43;;;;;;;22.60;20.20;;;;;;;;;;5159256;27;20066;-60
2022/08/28 05:05:10;;;;;;;25.10;19.58;;;;;;;;;;5158670;27;20050;-60
2022/08/28 05:07:36;;;;;;;23.83;19.70;;;;;;;;;;5159088;27;20041;-60
2022/08/28 05:10:02;;;;;;;25.88;21.27;;;;;;;;;;5158585;27;20022;-60
2022/08/28 05:12:28;;;;;;;24.83;20.73;;;;;;;;;;5158469;27;20054;-60
2022/08/28 05:14:54;;;;;;;25.23;21.30;;;;;;;;;;5159075;27;20033;-60
2022/08/28 05:17:20;;;;;;;24.42;19.80;;;;;;;;;;5158379;27;20027;-60
2022/08/28 05:19:47;;;;;;;28.05;21.17;;;;;;;;;;5158639;27;20034;-60
2022/08/28 05:22:13;;;;;;;24.40;21.13;;;;;;;;;;5158213;27;20448;-60
2022/08/28 05:24:39;;;;;;;22.50;19.77;;;;;;;;;;5158904;27;20027;-60
2022/08/28 05:27:05;;;;;;;21.95;19.60;;;;;;;;;;5158260;27;20022;-60
2022/08/28 05:29:32;;;;;;;26.58;20.98;;;;;;;;;;5158484;27;20027;-60
2022/08/28 05:31:58;;;;;;;22.02;18.75;;;;;;;;;;5157773;27;20033;-60
2022/08/28 05:34:24;;;;;;;21.13;18.50;;;;;;;;;;5159010;27;20076;-60
2022/08/28 05:36:50;;;;;;;21.83;19.00;;;;;;;;;;5157860;27;20364;-60
2022/08/28 05:39:16;;;;;;;21.75;19.42;;;;;;;;;;5158000;27;20026;-60
2022/08/28 05:41:44;;;;;;;22.08;19.73;;;;;;;;;;5157670;27;20423;-60
2022/08/28 05:44:11;;;;;;;21.85;18.90;;;;;;;;;;5158176;27;20018;-60
2022/08/28 05:46:38;;;;;;;21.63;17.85;;;;;;;;;;5158379;27;20374;-60
2022/08/28 05:49:04;;;;;;;25.67;19.85;;;;;;;;;;5157760;27;20053;-60
2022/08/28 05:51:30;;;;;;;22.58;19.10;;;;;;;;;;5158016;27;20141;-60
2022/08/28 05:53:56;;;;;;;25.08;19.98;;;;;;;;;;5158559;27;20015;-60
2022/08/28 05:56:24;;;;;;;19.77;17.35;;;;;;;;;;5157603;27;20029;-60
2022/08/28 05:58:50;;;;;;;26.67;19.23;;;;;;;;;;5157579;27;20047;-60
2022/08/28 06:01:16;;;;;;;25.50;19.98;;;;;;;;;;5157570;27;20098;-60
2022/08/28 06:03:43;;;;;;;24.90;19.83;;;;;;;;;;5158067;27;20019;-60
2022/08/28 06:06:10;;;;;;;23.08;19.77;;;;;;;;;;5157482;27;20054;-60
2022/08/28 06:08:37;;;;;;;28.77;20.55;;;;;;;;;;5157384;27;20079;-60
2022/08/28 06:11:04;;;;;;;26.65;20.90;;;;;;;;;;5157320;27;20033;-60
2022/08/28 06:13:31;;;;;;;21.90;19.70;;;;;;;;;;5157856;27;20015;-60
2022/08/28 06:15:57;;;;;;;24.08;19.33;;;;;;;;;;5157179;27;20026;-60
2022/08/28 06:18:24;;;;;;;22.73;19.73;;;;;;;;;;5157518;27;20037;-60
2022/08/28 06:20:50;;;;;;;24.60;20.10;;;;;;;;;;5156844;27;20476;-60
2022/08/28 06:23:18;;;;;;;21.55;19.00;;;;;;;;;;5157456;27;20015;-60
2022/08/28 06:25:45;;;;;;;27.77;20.85;;;;;;;;;;5157059;27;20026;-60
2022/08/28 06:28:13;;;;;;;26.55;17.45;;;;;;;;;;5157030;27;20022;-60
2022/08/28 06:30:39;;;;;;;22.10;19.48;;;;;;;;;;5157253;27;20472;-60
2022/08/28 06:33:05;;;;;;;22.73;19.58;;;;;;;;;;5156960;27;20019;-60
2022/08/28 06:35:33;;;;;;;22.95;19.80;;;;;;;;;;5157446;27;20029;-60
2022/08/28 06:37:59;;;;;;;19.83;15.40;;;;;;;;;;5156728;27;20027;-60
2022/08/28 06:40:25;;;;;;;20.15;17.90;;;;;;;;;;5156730;27;20061;-60
2022/08/28 06:42:51;;;;;;;23.13;18.23;;;;;;;;;;5157071;27;20050;-60
2022/08/28 06:45:17;;;;;;;21.73;17.35;;;;;;;;;;5156219;27;20018;-60
2022/08/28 06:47:43;;;;;;;20.55;18.25;;;;;;;;;;5156563;27;20050;-60
2022/08/28 06:50:09;;;;;;;22.70;19.52;;;;;;;;;;5156584;27;20023;-60
2022/08/28 06:52:35;;;;;;;20.90;16.50;;;;;;;;;;5156762;27;20098;-60
2022/08/28 06:55:01;;;;;;;22.92;17.65;;;;;;;;;;5156236;27;20057;-60
2022/08/28 06:57:27;;;;;;;22.92;18.17;;;;;;;;;;5156263;27;20027;-60
2022/08/28 06:59:57;;;;;;;18.92;16.95;;;;;;;;;;5157153;27;20030;-60
2022/08/28 07:02:23;;;;;;;20.15;17.15;;;;;;;;;;5156369;27;20078;-60
2022/08/28 07:04:53;;;;;;;18.15;16.10;;;;;;;;;;5155643;27;20077;-60
2022/08/28 07:07:20;;;;;;;19.33;17.33;;;;;;;;;;5156480;27;20079;-60
2022/08/28 07:09:46;;;;;;;16.55;14.77;;;;;;;;;;5156205;27;20349;-60
2022/08/28 07:12:15;;;;;;;18.90;15.77;;;;;;;;;;5156670;27;20348;-60
2022/08/28 07:14:42;;;;;;;20.77;15.18;;;;;;;;;;5156450;27;20030;-60
2022/08/28 07:17:08;;;;;;;18.77;16.55;;;;;;;;;;5155957;27;20118;-60
2022/08/28 07:19:34;;;;;;;17.98;15.38;;;;;;;;;;5155991;27;20364;-60
2022/08/28 07:22:00;;;;;;;20.00;16.55;;;;;;;;;;5156264;27;20098;-60
2022/08/28 07:24:29;;;;;;;21.20;15.73;;;;;;;;;;5155910;27;20345;-60
2022/08/28 07:26:55;;;;;;;18.27;14.77;;;;;;;;;;5155742;27;20027;-60
2022/08/28 07:29:21;;;;;;;17.13;14.80;;;;;;;;;;5156430;27;20075;-60
2022/08/28 07:31:49;;;;;;;19.60;15.48;;;;;;;;;;5156040;27;20423;-60
2022/08/28 07:34:16;;;;;;;18.15;14.50;;;;;;;;;;5155831;27;20122;-60
2022/08/28 07:36:43;;;;;;;17.77;15.43;;;;;;;;;;5155322;27;20481;-60
2022/08/28 07:39:09;;;;;;;20.80;17.73;;;;;;;;;;5155904;27;20026;-60
2022/08/28 07:41:37;;;;;;;18.10;16.30;;;;;;;;;;5155689;27;20365;-60
2022/08/28 07:46:52;;;;;;;20.50;16.50;;;;;;;;;;5155992;27;20087;-60
2022/08/28 07:49:18;;;;;;;19.30;15.48;;;;;;;;;;5155678;27;20034;-60
2022/08/28 07:51:44;;;;;;;17.95;16.15;;;;;;;;;;5156051;27;20068;-60
2022/08/28 07:54:11;;;;;;;17.58;15.73;;;;;;;;;;5155910;27;20037;-60
2022/08/28 07:56:39;;;;;;;18.20;15.60;;;;;;;;;;5155408;27;20039;-60
2022/08/28 07:59:06;;;;;;;18.65;16.60;;;;;;;;;;5155754;27;20023;-60
2022/08/28 08:01:36;;;;;;;16.80;15.00;;;;;;;;;;5155513;27;20053;-60
2022/08/28 08:04:03;;;;;;;16.45;14.80;;;;;;;;;;5156342;27;20062;-60
2022/08/28 08:06:30;;;;;;;17.13;15.52;;;;;;;;;;5159169;27;20027;-60
2022/08/28 08:08:56;;;;;;;15.75;14.13;;;;;;;;;;5159755;27;20468;-60
2022/08/28 08:11:22;;;;;;;16.67;15.02;;;;;;;;;;5159675;27;20110;-60
2022/08/28 08:13:48;;;;;;;20.65;15.35;;;;;;;;;;5158015;27;20479;-60
2022/08/28 08:16:16;;;;;;;18.52;15.60;;;;;;;;;;5159520;27;20412;-60
2022/08/28 08:18:43;;;;;;;17.63;13.93;;;;;;;;;;5159800;27;20026;-60
2022/08/28 08:21:10;;;;;;;15.55;14.02;;;;;;;;;;5159523;27;20023;-60
2022/08/28 08:23:37;;;;;;;15.82;12.73;;;;;;;;;;5159728;27;20014;-60
2022/08/28 08:26:05;;;;;;;16.98;14.77;;;;;;;;;;5159569;27;20345;-60
2022/08/28 08:28:32;;;;;;;19.20;16.20;;;;;;;;;;5159258;27;20030;-60
2022/08/28 08:31:17;;;;;;;16.38;14.00;;;;;;;;;;5160043;27;20058;-60
2022/08/28 08:33:44;;;;;;;16.95;14.48;;;;;;;;;;5159161;27;20109;-60
2022/08/28 08:36:11;;;;;;;15.75;12.82;;;;;;;;;;5159080;27;20444;-60
2022/08/28 08:38:37;;;;;;;20.83;14.43;;;;;;;;;;5159005;27;20452;-60
2022/08/28 08:41:13;;;;;;;16.73;14.15;;;;;;;;;;5159177;27;20019;-60
2022/08/28 08:43:57;;;;;;;16.15;14.52;;;;;;;;;;5158703;27;20031;-60
2022/08/28 08:46:26;;;;;;;17.65;15.00;;;;;;;;;;5159031;27;20023;-60
2022/08/28 08:48:53;;;;;;;16.08;13.73;;;;;;;;;;5159347;27;20101;-60
2022/08/28 08:51:22;;;;;;;17.27;14.70;;;;;;;;;;5158422;27;20172;-60
2022/08/28 08:54:15;;;;;;;14.02;12.55;;;;;;;;;;5158978;27;20072;-60
2022/08/28 08:56:41;;;;;;;15.60;12.13;;;;;;;;;;5155773;27;20046;-60
2022/08/28 08:59:10;;;;;;;15.13;13.55;;;;;;;;;;5158584;27;20450;-60
2022/08/28 09:01:41;;;;;;;15.52;14.02;;;;;;;;;;5157314;27;20042;-60
2022/08/28 09:04:40;;;;;;;15.60;12.85;;;;;;;;;;5158982;27;20036;-60
2022/08/28 09:07:38;;;;;;;13.77;12.35;;;;;;;;;;5123863;27;20070;-60
2022/08/28 09:10:09;;;;;;;13.65;12.05;;;;;;;;;;5123798;27;20038;-60
2022/08/28 09:12:45;;;;;;;14.52;12.40;;;;;;;;;;5158948;27;20441;-59
2022/08/28 09:15:11;;;;;;;14.20;12.57;;;;;;;;;;5159353;27;20021;-59
2022/08/28 09:17:46;;;;;;;14.77;10.88;;;;;;;;;;5157105;27;20476;-59
2022/08/28 09:20:14;;;;;;;14.07;11.18;;;;;;;;;;5158678;27;20037;-59
2022/08/28 09:22:45;;;;;;;14.32;11.98;;;;;;;;;;5158567;27;20038;-59
2022/08/28 09:25:12;;;;;;;14.23;11.48;;;;;;;;;;5158640;27;20022;-59
2022/08/28 09:27:52;;;;;;;14.57;12.98;;;;;;;;;;5158228;27;20376;-59
2022/08/28 09:30:28;;;;;;;13.02;10.93;;;;;;;;;;5159003;27;20030;-59
2022/08/28 09:33:00;;;;;;;12.95;11.50;;;;;;;;;;5158195;27;20087;-59
2022/08/28 09:35:32;;;;;;;12.63;11.32;;;;;;;;;;5158005;27;20014;-59
2022/08/28 09:38:16;;;;;;;12.88;10.80;;;;;;;;;;5157966;27;20114;-59
2022/08/28 09:43:28;;;;;;;12.23;9.98;;;;;;;;;;5157669;27;20030;-60
2022/08/28 09:45:57;;;;;;;11.82;10.63;;;;;;;;;;5157855;27;20113;-60
2022/08/28 09:48:29;;;;;;;14.13;10.15;;;;;;;;;;5158385;27;20023;-59
2022/08/28 09:51:03;;;;;;;9.88;8.63;;;;;;;;;;5157866;27;20084;-59
2022/08/28 09:53:31;;;;;;;11.30;9.70;;;;;;;;;;5158559;27;20026;-59
2022/08/28 09:55:57;;;;;;;11.85;8.98;;;;;;;;;;5158431;27;20133;-59
2022/08/28 09:58:28;;;;;;;9.15;7.93;;;;;;;;;;5157519;27;20512;-59
2022/08/28 10:01:00;;;;;;;9.68;8.18;;;;;;;;;;5157931;27;20046;-60
2022/08/28 10:03:40;;;;;;;10.23;9.15;;;;;;;;;;5157524;27;20478;-60
2022/08/28 10:06:25;;;;;;;7.45;6.75;;;;;;;;;;5158168;27;20026;-60
2022/08/28 10:09:03;;;;;;;11.88;8.15;;;;;;;;;;5157692;27;20049;-59
2022/08/28 10:11:29;;;;;;;8.25;7.45;;;;;;;;;;5157483;27;20019;-59
2022/08/28 10:14:14;;;;;;;12.60;8.07;;;;;;;;;;5157304;27;20038;-60
2022/08/28 10:16:48;;;;;;;8.77;7.18;;;;;;;;;;5157326;27;20349;-60
2022/08/28 10:19:31;;;;;;;9.05;7.13;;;;;;;;;;5157205;27;20021;-59
2022/08/28 10:22:03;;;;;;;11.23;7.28;;;;;;;;;;5157448;27;20022;-59
2022/08/28 10:24:35;;;;;;;11.13;6.65;;;;;;;;;;5157384;27;20067;-59
2022/08/28 10:27:16;;;;;;;11.93;7.40;;;;;;;;;;5156985;27;20368;-59
2022/08/28 10:29:44;;;;;;;8.32;6.60;;;;;;;;;;5156878;27;20015;-60
2022/08/28 10:32:22;;;;;;;9.52;8.57;;;;;;;;;;5157383;27;20360;-59
2022/08/28 10:35:06;;;;;;;7.43;6.63;;;;;;;;;;5157254;27;20058;-60
2022/08/28 10:37:57;;;;;;;10.13;8.63;;;;;;;;;;5156760;27;20483;-59
2022/08/28 10:40:33;;;;;;;9.00;8.10;;;;;;;;;;5157184;27;20052;-59
2022/08/28 10:43:11;;;;;;;10.20;8.73;;;;;;;;;;5157527;27;20054;-59
2022/08/28 10:45:38;;;;;;;9.55;7.50;;;;;;;;;;5156676;27;20027;-59
2022/08/28 10:48:18;;;;;;;11.45;8.00;;;;;;;;;;5156979;27;20022;-60
2022/08/28 10:50:50;;;;;;;7.88;7.07;;;;;;;;;;5156841;27;20053;-59
2022/08/28 10:53:36;;;;;;;12.95;7.53;;;;;;;;;;5156560;27;20037;-59
2022/08/28 10:56:04;;;;;;;8.52;7.55;;;;;;;;;;5157052;27;20035;-59
2022/08/28 10:58:32;;;;;;;7.47;6.70;;;;;;;;;;5156345;27;20034;-59
2022/08/28 11:01:01;;;;;;;8.27;7.00;;;;;;;;;;5156688;27;20094;-59
2022/08/28 11:03:28;;;;;;;14.25;8.00;;;;;;;;;;5156402;27;20368;-59
2022/08/28 11:06:10;;;;;;;8.38;6.45;;;;;;;;;;5156274;27;20103;-59
2022/08/28 11:08:38;;;;;;;7.75;6.93;;;;;;;;;;5156179;27;20030;-59
2022/08/28 11:11:05;;;;;;;12.32;8.02;;;;;;;;;;5156408;27;20022;-59
2022/08/28 11:13:54;;;;;;;7.22;6.50;;;;;;;;;;5156150;27;20030;-59
2022/08/28 11:16:23;;;;;;;9.10;7.78;;;;;;;;;;5147814;27;20080;-59
2022/08/28 11:19:08;;;;;;;6.90;5.40;;;;;;;;;;5156033;27;20014;-59
2022/08/28 11:21:43;;;;;;;8.18;6.63;;;;;;;;;;5156316;27;20029;-60
2022/08/28 11:24:24;;;;;;;9.10;6.45;;;;;;;;;;5156060;27;20029;-59
2022/08/28 11:27:03;;;;;;;7.50;6.55;;;;;;;;;;5156559;27;20031;-59
2022/08/28 11:29:48;;;;;;;7.75;6.20;;;;;;;;;;5156760;27;20023;-59
2022/08/28 11:32:27;;;;;;;7.90;5.93;;;;;;;;;;5156134;27;20022;-59
2022/08/28 11:35:16;;;;;;;9.25;6.53;;;;;;;;;;5156287;27;20030;-59
2022/08/28 11:37:43;;;;;;;9.52;6.15;;;;;;;;;;5154978;27;20035;-60
2022/08/28 11:40:17;;;;;;;9.52;5.88;;;;;;;;;;5155545;27;20023;-59
2022/08/28 11:42:47;;;;;;;7.28;5.47;;;;;;;;;;5156047;27;20022;-59
2022/08/28 11:45:42;;;;;;;10.48;6.32;;;;;;;;;;5155671;27;20037;-59
2022/08/28 11:48:08;;;;;;;6.10;5.35;;;;;;;;;;5155804;27;20027;-60
2022/08/28 11:50:55;;;;;;;8.25;6.47;;;;;;;;;;5155465;27;20062;-57
2022/08/28 11:53:28;;;;;;;10.93;5.85;;;;;;;;;;5156346;27;20023;-57
2022/08/28 11:56:13;;;;;;;7.20;6.47;;;;;;;;;;5156117;27;20019;-57
2022/08/28 11:58:55;;;;;;;6.63;5.90;;;;;;;;;;5155874;27;20030;-57
2022/08/28 12:01:30;;;;;;;9.10;6.32;;;;;;;;;;5155931;27;20079;-57
2022/08/28 12:03:58;;;;;;;7.25;6.20;;;;;;;;;;5155314;27;20030;-57
2022/08/28 12:06:43;;;;;;;6.68;5.97;;;;;;;;;;5155789;27;20034;-57
2022/08/28 12:09:09;;;;;;;6.68;5.82;;;;;;;;;;5155434;27;20067;-57
2022/08/28 12:11:41;;;;;;;7.07;5.20;;;;;;;;;;5155412;27;20119;-57
2022/08/28 12:14:08;;;;;;;9.50;7.15;;;;;;;;;;5156272;27;20030;-57
2022/08/28 12:16:53;;;;;;;6.68;5.57;;;;;;;;;;5155629;27;20110;-57
2022/08/28 12:19:27;;;;;;;6.50;5.40;;;;;;;;;;5155719;27;20058;-57
2022/08/28 12:21:54;;;;;;;7.68;5.65;;;;;;;;;;5155242;27;20034;-57
2022/08/28 12:24:22;;;;;;;7.18;6.45;;;;;;;;;;5155670;27;20029;-57
2022/08/28 12:26:53;;;;;;;6.88;5.45;;;;;;;;;;5154917;27;20480;-57
2022/08/28 12:29:32;;;;;;;6.45;5.28;;;;;;;;;;5155219;27;20044;-57
2022/08/28 12:32:15;;;;;;;12.27;6.10;;;;;;;;;;5155251;27;20023;-57
2022/08/28 12:34:59;;;;;;;8.90;6.03;;;;;;;;;;5155782;27;20406;-57
2022/08/28 12:37:33;;;;;;;5.68;5.05;;;;;;;;;;5155330;27;20068;-57
2022/08/28 12:40:22;;;;;;;6.13;5.53;;;;;;;;;;5155206;27;20405;-57
2022/08/28 12:43:08;;;;;;;6.55;5.55;;;;;;;;;;5147303;27;20027;-57
2022/08/28 12:45:43;;;;;;;8.95;6.30;;;;;;;;;;5155938;27;20023;-57
2022/08/28 12:48:18;;;;;;;5.65;5.05;;;;;;;;;;5155081;27;20038;-57
2022/08/28 12:50:44;;;;;;;9.50;6.68;;;;;;;;;;5155069;27;20058;-58
2022/08/28 12:53:15;;;;;;;7.38;6.20;;;;;;;;;;5158149;27;20015;-59
2022/08/28 12:55:41;;;;;;;6.45;5.30;;;;;;;;;;5159106;27;20064;-59
2022/08/28 12:58:26;;;;;;;7.25;6.10;;;;;;;;;;5158811;27;20038;-59
2022/08/28 13:00:54;;;;;;;8.77;6.25;;;;;;;;;;5158730;27;20037;-58
2022/08/28 13:03:21;;;;;;;9.88;5.55;;;;;;;;;;5158805;27;20030;-58
2022/08/28 13:05:54;;;;;;;7.97;5.80;;;;;;;;;;5158539;27;20464;-58
2022/08/28 13:08:21;;;;;;;5.50;4.97;;;;;;;;;;5158717;27;20421;-58
2022/08/28 13:10:48;;;;;;;7.60;5.25;;;;;;;;;;5158516;27;20033;-58
2022/08/28 13:13:19;;;;;;;9.63;6.45;;;;;;;;;;5159101;27;20356;-58
2022/08/28 13:15:50;;;;;;;6.40;5.18;;;;;;;;;;5158754;27;20023;-59
2022/08/28 13:18:36;;;;;;;6.65;5.40;;;;;;;;;;5158341;27;20038;-59
2022/08/28 13:21:17;;;;;;;5.65;5.13;;;;;;;;;;5158329;27;20026;-59
2022/08/28 13:23:51;;;;;;;7.28;5.50;;;;;;;;;;5158610;27;20030;-59
2022/08/28 13:26:22;;;;;;;5.63;4.90;;;;;;;;;;5159110;27;20114;-58
2022/08/28 13:28:48;;;;;;;7.65;5.28;;;;;;;;;;5158515;27;20048;-58
2022/08/28 13:31:20;;;;;;;6.95;5.70;;;;;;;;;;5158143;27;20019;-58
2022/08/28 13:34:01;;;;;;;5.28;4.25;;;;;;;;;;5158519;27;20097;-58
2022/08/28 13:36:27;;;;;;;5.25;4.75;;;;;;;;;;5158532;27;20402;-59
2022/08/28 13:38:53;;;;;;;6.22;5.63;;;;;;;;;;5158578;27;20094;-59
2022/08/28 13:41:19;;;;;;;6.85;5.43;;;;;;;;;;5158514;27;20023;-59
2022/08/28 13:43:46;;;;;;;6.18;5.30;;;;;;;;;;5158118;27;20095;-58
2022/08/28 13:46:12;;;;;;;5.28;4.65;;;;;;;;;;5157910;27;20338;-58
2022/08/28 13:48:38;;;;;;;6.60;5.68;;;;;;;;;;5158578;27;20117;-58
2022/08/28 13:51:05;;;;;;;7.18;4.88;;;;;;;;;;5157637;27;20074;-58
2022/08/28 13:53:32;;;;;;;6.80;4.88;;;;;;;;;;5157637;27;20053;-58
2022/08/28 13:55:59;;;;;;;5.65;5.15;;;;;;;;;;5157736;27;20053;-58
2022/08/28 13:58:25;;;;;;;5.32;4.47;;;;;;;;;;5157476;27;20037;-58
2022/08/28 14:00:51;;;;;;;5.00;4.50;;;;;;;;;;5158301;27;20038;-59
2022/08/28 14:03:37;;;;;;;6.35;4.72;;;;;;;;;;5157688;27;20453;-59
2022/08/28 14:06:05;;;;;;;7.60;4.78;;;;;;;;;;5158126;27;20102;-59
2022/08/28 14:08:31;;;;;;;7.25;4.57;;;;;;;;;;5158015;27;20027;-59
2022/08/28 14:10:58;;;;;;;5.57;4.97;;;;;;;;;;5157422;27;20057;-59
2022/08/28 14:13:26;;;;;;;8.48;4.97;;;;;;;;;;5158028;27;20444;-59
2022/08/28 14:15:52;;;;;;;7.70;5.43;;;;;;;;;;5157271;27;20152;-59
2022/08/28 14:18:19;;;;;;;6.13;4.97;;;;;;;;;;5157252;27;20372;-59
2022/08/28 14:20:45;;;;;;;7.38;5.38;;;;;;;;;;5157661;27;20443;-59
2022/08/28 14:23:10;;;;;;;8.73;4.43;;;;;;;;;;5157654;27;20118;-59
2022/08/28 14:25:40;;;;;;;8.60;4.90;;;;;;;;;;5157090;27;20068;-59
2022/08/28 14:28:06;;;;;;;5.45;4.95;;;;;;;;;;5157074;27;20089;-59
2022/08/28 14:30:32;;;;;;;5.45;4.90;;;;;;;;;;5157275;27;20054;-59
2022/08/28 14:32:58;;;;;;;8.13;5.50;;;;;;;;;;5157549;27;20095;-59
2022/08/28 14:35:25;;;;;;;5.30;4.80;;;;;;;;;;5156868;27;20030;-59
2022/08/28 14:37:51;;;;;;;5.47;4.53;;;;;;;;;;5156953;27;20499;-59
2022/08/28 14:40:17;;;;;;;5.13;4.43;;;;;;;;;;5157113;27;20034;-59
2022/08/28 14:42:43;;;;;;;4.50;3.75;;;;;;;;;;5156960;27;20023;-59
2022/08/28 14:45:09;;;;;;;4.80;4.13;;;;;;;;;;5157101;27;20482;-59
2022/08/28 14:47:38;;;;;;;9.07;5.78;;;;;;;;;;5156406;27;20367;-59